sensor_id;sensor_type;location;lat;lon;timestamp;temperature;humidity
11089;DHT22;5598;48.648;8.908;2023-05-16T00:00:05;12.70;99.90
11089;DHT22;5598;48.648;8.908;2023-05-16T00:02:33;12.70;99.90
11089;DHT22;5598;48.648;8.908;2023-05-16T00:05:00;12.60;99.90
11089;DHT22;5598;48.648;8.908;2023-05-16T00:07:31;12.60;99.90
11089;DHT22;5598;48.648;8.908;2023-05-16T00:09:58;12.50;99.90
11089;DHT22;5598;48.648;8.908;2023-05-16T00:12:25;12.50;99.90
11089;DHT22;5598;48.648;8.908;2023-05-16T00:14:52;12.50;99.90
11089;DHT22;5598;48.648;8.908;2023-05-16T00:17:20;12.50;99.90
11089;DHT22;5598;48.648;8.908;2023-05-16T00:19:47;12.50;99.90
11089;DHT22;5598;48.648;8.908;2023-05-16T00:22:14;12.50;99.90
11089;DHT22;5598;48.648;8.908;2023-05-16T00:24:42;12.50;99.90
11089;DHT22;5598;48.648;8.908;2023-05-16T00:27:09;12.50;99.90
11089;DHT22;5598;48.648;8.908;2023-05-16T00:29:36;12.40;99.90
11089;DHT22;5598;48.648;8.908;2023-05-16T00:32:03;12.50;99.90
11089;DHT22;5598;48.648;8.908;2023-05-16T00:34:32;12.40;99.90
11089;DHT22;5598;48.648;8.908;2023-05-16T00:36:59;12.30;99.90
11089;DHT22;5598;48.648;8.908;2023-05-16T00:39:26;12.30;99.90
11089;DHT22;5598;48.648;8.908;2023-05-16T00:41:54;12.30;99.90
11089;DHT22;5598;48.648;8.908;2023-05-16T00:44:22;12.30;99.90
11089;DHT22;5598;48.648;8.908;2023-05-16T00:46:48;12.30;99.90
11089;DHT22;5598;48.648;8.908;2023-05-16T00:49:16;12.30;99.90
11089;DHT22;5598;48.648;8.908;2023-05-16T00:51:43;12.20;99.90
11089;DHT22;5598;48.648;8.908;2023-05-16T00:54:10;12.20;99.90
11089;DHT22;5598;48.648;8.908;2023-05-16T00:56:37;12.20;99.90
11089;DHT22;5598;48.648;8.908;2023-05-16T00:59:05;12.30;99.90
11089;DHT22;5598;48.648;8.908;2023-05-16T01:01:32;12.20;99.90
11089;DHT22;5598;48.648;8.908;2023-05-16T01:04:01;12.20;99.90
11089;DHT22;5598;48.648;8.908;2023-05-16T01:06:28;12.30;99.90
11089;DHT22;5598;48.648;8.908;2023-05-16T01:08:55;12.30;99.90
11089;DHT22;5598;48.648;8.908;2023-05-16T01:11:27;12.30;99.90
11089;DHT22;5598;48.648;8.908;2023-05-16T01:14:08;12.30;99.90
11089;DHT22;5598;48.648;8.908;2023-05-16T01:16:39;12.20;99.90
11089;DHT22;5598;48.648;8.908;2023-05-16T01:19:18;12.30;99.90
11089;DHT22;5598;48.648;8.908;2023-05-16T01:21:48;12.30;99.90
11089;DHT22;5598;48.648;8.908;2023-05-16T01:24:22;12.30;99.90
11089;DHT22;5598;48.648;8.908;2023-05-16T01:26:55;12.30;99.90
11089;DHT22;5598;48.648;8.908;2023-05-16T01:29:22;12.30;99.90
11089;DHT22;5598;48.648;8.908;2023-05-16T01:31:49;12.30;99.90
11089;DHT22;5598;48.648;8.908;2023-05-16T01:34:16;12.20;99.90
11089;DHT22;5598;48.648;8.908;2023-05-16T01:36:47;12.20;99.90
11089;DHT22;5598;48.648;8.908;2023-05-16T01:39:19;12.20;99.90
11089;DHT22;5598;48.648;8.908;2023-05-16T01:41:56;12.10;99.90
11089;DHT22;5598;48.648;8.908;2023-05-16T01:44:30;12.20;99.90
11089;DHT22;5598;48.648;8.908;2023-05-16T01:47:01;12.10;99.90
11089;DHT22;5598;48.648;8.908;2023-05-16T01:49:34;12.10;99.90
11089;DHT22;5598;48.648;8.908;2023-05-16T01:52:04;12.10;99.90
11089;DHT22;5598;48.648;8.908;2023-05-16T01:54:36;12.10;99.90
11089;DHT22;5598;48.648;8.908;2023-05-16T01:57:05;12.10;99.90
11089;DHT22;5598;48.648;8.908;2023-05-16T01:59:34;12.10;99.90
11089;DHT22;5598;48.648;8.908;2023-05-16T02:02:01;12.00;99.90
11089;DHT22;5598;48.648;8.908;2023-05-16T02:04:29;12.00;99.90
11089;DHT22;5598;48.648;8.908;2023-05-16T02:06:56;12.00;99.90
11089;DHT22;5598;48.648;8.908;2023-05-16T02:09:24;12.00;99.90
11089;DHT22;5598;48.648;8.908;2023-05-16T02:11:51;11.90;99.90
11089;DHT22;5598;48.648;8.908;2023-05-16T02:14:19;11.90;99.90
11089;DHT22;5598;48.648;8.908;2023-05-16T02:16:47;11.80;99.90
11089;DHT22;5598;48.648;8.908;2023-05-16T02:19:14;11.80;99.90
11089;DHT22;5598;48.648;8.908;2023-05-16T02:21:41;11.80;99.90
11089;DHT22;5598;48.648;8.908;2023-05-16T02:24:07;11.80;99.90
11089;DHT22;5598;48.648;8.908;2023-05-16T02:26:34;11.80;99.90
11089;DHT22;5598;48.648;8.908;2023-05-16T02:29:01;11.80;99.90
11089;DHT22;5598;48.648;8.908;2023-05-16T02:31:30;11.80;99.90
11089;DHT22;5598;48.648;8.908;2023-05-16T02:33:59;11.80;99.90
11089;DHT22;5598;48.648;8.908;2023-05-16T02:36:26;11.70;99.90
11089;DHT22;5598;48.648;8.908;2023-05-16T02:38:53;11.70;99.90
11089;DHT22;5598;48.648;8.908;2023-05-16T02:41:20;11.70;99.90
11089;DHT22;5598;48.648;8.908;2023-05-16T02:43:47;11.60;99.90
11089;DHT22;5598;48.648;8.908;2023-05-16T02:46:21;11.60;99.90
11089;DHT22;5598;48.648;8.908;2023-05-16T02:48:49;11.60;99.90
11089;DHT22;5598;48.648;8.908;2023-05-16T02:51:16;11.60;99.90
11089;DHT22;5598;48.648;8.908;2023-05-16T02:53:43;11.60;99.90
11089;DHT22;5598;48.648;8.908;2023-05-16T02:56:10;11.70;99.90
11089;DHT22;5598;48.648;8.908;2023-05-16T02:58:36;11.60;99.90
11089;DHT22;5598;48.648;8.908;2023-05-16T03:01:03;11.60;99.90
11089;DHT22;5598;48.648;8.908;2023-05-16T03:03:30;11.60;99.90
11089;DHT22;5598;48.648;8.908;2023-05-16T03:06:01;11.60;99.90
11089;DHT22;5598;48.648;8.908;2023-05-16T03:08:28;11.60;99.90
11089;DHT22;5598;48.648;8.908;2023-05-16T03:10:55;11.60;99.90
11089;DHT22;5598;48.648;8.908;2023-05-16T03:13:22;11.60;99.90
11089;DHT22;5598;48.648;8.908;2023-05-16T03:15:48;11.60;99.90
11089;DHT22;5598;48.648;8.908;2023-05-16T03:18:16;11.60;99.90
11089;DHT22;5598;48.648;8.908;2023-05-16T03:20:42;11.60;99.90
11089;DHT22;5598;48.648;8.908;2023-05-16T03:23:11;11.60;99.90
11089;DHT22;5598;48.648;8.908;2023-05-16T03:25:37;11.60;99.90
11089;DHT22;5598;48.648;8.908;2023-05-16T03:28:05;11.60;99.90
11089;DHT22;5598;48.648;8.908;2023-05-16T03:30:32;11.60;99.90
11089;DHT22;5598;48.648;8.908;2023-05-16T03:32:59;11.60;99.90
11089;DHT22;5598;48.648;8.908;2023-05-16T03:35:26;11.50;99.90
11089;DHT22;5598;48.648;8.908;2023-05-16T03:37:53;11.60;99.90
11089;DHT22;5598;48.648;8.908;2023-05-16T03:40:21;11.60;99.90
11089;DHT22;5598;48.648;8.908;2023-05-16T03:42:48;11.70;99.90
11089;DHT22;5598;48.648;8.908;2023-05-16T03:45:15;11.70;99.90
11089;DHT22;5598;48.648;8.908;2023-05-16T03:47:42;11.70;99.90
11089;DHT22;5598;48.648;8.908;2023-05-16T03:50:09;11.70;99.90
11089;DHT22;5598;48.648;8.908;2023-05-16T03:52:36;11.70;99.90
11089;DHT22;5598;48.648;8.908;2023-05-16T03:55:04;11.60;99.90
11089;DHT22;5598;48.648;8.908;2023-05-16T03:57:33;11.70;99.90
11089;DHT22;5598;48.648;8.908;2023-05-16T04:00:00;11.70;99.90
11089;DHT22;5598;48.648;8.908;2023-05-16T04:02:28;11.70;99.90
11089;DHT22;5598;48.648;8.908;2023-05-16T04:04:54;11.60;99.90
11089;DHT22;5598;48.648;8.908;2023-05-16T04:07:21;11.70;99.90
11089;DHT22;5598;48.648;8.908;2023-05-16T04:09:48;11.70;99.90
11089;DHT22;5598;48.648;8.908;2023-05-16T04:12:15;11.70;99.90
11089;DHT22;5598;48.648;8.908;2023-05-16T04:14:43;11.70;99.90
11089;DHT22;5598;48.648;8.908;2023-05-16T04:17:10;11.70;99.90
11089;DHT22;5598;48.648;8.908;2023-05-16T04:19:37;11.70;99.90
11089;DHT22;5598;48.648;8.908;2023-05-16T04:22:04;11.70;99.90
11089;DHT22;5598;48.648;8.908;2023-05-16T04:24:32;11.70;99.90
11089;DHT22;5598;48.648;8.908;2023-05-16T04:26:59;11.70;99.90
11089;DHT22;5598;48.648;8.908;2023-05-16T04:29:26;11.70;99.90
11089;DHT22;5598;48.648;8.908;2023-05-16T04:31:54;11.70;99.90
11089;DHT22;5598;48.648;8.908;2023-05-16T04:34:21;11.80;99.90
11089;DHT22;5598;48.648;8.908;2023-05-16T04:36:52;11.80;99.90
11089;DHT22;5598;48.648;8.908;2023-05-16T04:39:19;11.80;99.90
11089;DHT22;5598;48.648;8.908;2023-05-16T04:41:46;11.80;99.90
11089;DHT22;5598;48.648;8.908;2023-05-16T04:44:12;11.90;99.90
11089;DHT22;5598;48.648;8.908;2023-05-16T04:46:39;11.90;99.90
11089;DHT22;5598;48.648;8.908;2023-05-16T04:49:07;12.00;99.90
11089;DHT22;5598;48.648;8.908;2023-05-16T04:51:35;12.00;99.90
11089;DHT22;5598;48.648;8.908;2023-05-16T04:54:02;12.00;99.90
11089;DHT22;5598;48.648;8.908;2023-05-16T04:56:29;12.00;99.90
11089;DHT22;5598;48.648;8.908;2023-05-16T04:58:56;12.00;99.90
11089;DHT22;5598;48.648;8.908;2023-05-16T05:01:23;12.00;99.90
11089;DHT22;5598;48.648;8.908;2023-05-16T05:03:49;12.10;99.90
11089;DHT22;5598;48.648;8.908;2023-05-16T05:06:18;12.10;99.90
11089;DHT22;5598;48.648;8.908;2023-05-16T05:08:44;12.10;99.90
11089;DHT22;5598;48.648;8.908;2023-05-16T05:11:11;12.20;99.90
11089;DHT22;5598;48.648;8.908;2023-05-16T05:13:38;12.20;99.90
11089;DHT22;5598;48.648;8.908;2023-05-16T05:16:05;12.20;99.90
11089;DHT22;5598;48.648;8.908;2023-05-16T05:18:32;12.30;99.90
11089;DHT22;5598;48.648;8.908;2023-05-16T05:20:59;12.20;99.90
11089;DHT22;5598;48.648;8.908;2023-05-16T05:23:27;12.30;99.90
11089;DHT22;5598;48.648;8.908;2023-05-16T05:25:54;12.30;99.90
11089;DHT22;5598;48.648;8.908;2023-05-16T05:28:21;12.30;99.90
11089;DHT22;5598;48.648;8.908;2023-05-16T05:30:48;12.20;99.90
11089;DHT22;5598;48.648;8.908;2023-05-16T05:33:16;12.30;99.90
11089;DHT22;5598;48.648;8.908;2023-05-16T05:35:43;12.30;99.90
11089;DHT22;5598;48.648;8.908;2023-05-16T05:38:09;12.30;99.90
11089;DHT22;5598;48.648;8.908;2023-05-16T05:40:38;12.40;99.90
11089;DHT22;5598;48.648;8.908;2023-05-16T05:43:04;12.30;99.90
11089;DHT22;5598;48.648;8.908;2023-05-16T05:45:31;12.30;99.90
11089;DHT22;5598;48.648;8.908;2023-05-16T05:47:58;12.20;99.90
11089;DHT22;5598;48.648;8.908;2023-05-16T05:50:25;12.30;99.90
11089;DHT22;5598;48.648;8.908;2023-05-16T05:52:53;12.30;99.90
11089;DHT22;5598;48.648;8.908;2023-05-16T05:55:20;12.30;99.90
11089;DHT22;5598;48.648;8.908;2023-05-16T05:57:48;12.30;99.90
11089;DHT22;5598;48.648;8.908;2023-05-16T06:00:15;12.30;99.90
11089;DHT22;5598;48.648;8.908;2023-05-16T06:02:42;12.30;99.90
11089;DHT22;5598;48.648;8.908;2023-05-16T06:05:09;12.30;99.90
11089;DHT22;5598;48.648;8.908;2023-05-16T06:07:36;12.30;99.90
11089;DHT22;5598;48.648;8.908;2023-05-16T06:10:03;12.30;99.90
11089;DHT22;5598;48.648;8.908;2023-05-16T06:12:30;12.30;99.90
11089;DHT22;5598;48.648;8.908;2023-05-16T06:14:59;12.30;99.90
11089;DHT22;5598;48.648;8.908;2023-05-16T06:17:25;12.30;99.90
11089;DHT22;5598;48.648;8.908;2023-05-16T06:19:52;12.20;99.90
11089;DHT22;5598;48.648;8.908;2023-05-16T06:22:19;12.20;99.90
11089;DHT22;5598;48.648;8.908;2023-05-16T06:24:46;12.10;99.90
11089;DHT22;5598;48.648;8.908;2023-05-16T06:27:12;12.10;99.90
11089;DHT22;5598;48.648;8.908;2023-05-16T06:29:39;12.10;99.90
11089;DHT22;5598;48.648;8.908;2023-05-16T06:32:07;12.20;99.90
11089;DHT22;5598;48.648;8.908;2023-05-16T06:34:34;12.20;99.90
11089;DHT22;5598;48.648;8.908;2023-05-16T06:37:01;12.20;99.90
11089;DHT22;5598;48.648;8.908;2023-05-16T06:39:29;12.20;99.90
11089;DHT22;5598;48.648;8.908;2023-05-16T06:41:55;12.20;99.90
11089;DHT22;5598;48.648;8.908;2023-05-16T06:44:22;12.30;99.90
11089;DHT22;5598;48.648;8.908;2023-05-16T06:46:49;12.30;99.90
11089;DHT22;5598;48.648;8.908;2023-05-16T06:49:17;12.30;99.90
11089;DHT22;5598;48.648;8.908;2023-05-16T06:51:44;12.30;99.90
11089;DHT22;5598;48.648;8.908;2023-05-16T06:54:11;12.30;99.90
11089;DHT22;5598;48.648;8.908;2023-05-16T06:56:38;12.30;99.90
11089;DHT22;5598;48.648;8.908;2023-05-16T06:59:04;12.40;99.90
11089;DHT22;5598;48.648;8.908;2023-05-16T07:01:31;12.40;99.90
11089;DHT22;5598;48.648;8.908;2023-05-16T07:03:58;12.40;99.90
11089;DHT22;5598;48.648;8.908;2023-05-16T07:06:26;12.40;99.90
11089;DHT22;5598;48.648;8.908;2023-05-16T07:08:53;12.40;99.90
11089;DHT22;5598;48.648;8.908;2023-05-16T07:11:20;12.40;99.90
11089;DHT22;5598;48.648;8.908;2023-05-16T07:13:46;12.40;99.90
11089;DHT22;5598;48.648;8.908;2023-05-16T07:16:13;12.30;99.90
11089;DHT22;5598;48.648;8.908;2023-05-16T07:18:40;12.30;99.90
11089;DHT22;5598;48.648;8.908;2023-05-16T07:21:07;12.20;99.90
11089;DHT22;5598;48.648;8.908;2023-05-16T07:23:35;12.20;99.90
11089;DHT22;5598;48.648;8.908;2023-05-16T07:26:02;12.20;99.90
11089;DHT22;5598;48.648;8.908;2023-05-16T07:28:29;12.20;99.90
11089;DHT22;5598;48.648;8.908;2023-05-16T07:30:56;12.20;99.90
11089;DHT22;5598;48.648;8.908;2023-05-16T07:33:23;12.10;99.90
11089;DHT22;5598;48.648;8.908;2023-05-16T07:35:51;12.10;99.90
11089;DHT22;5598;48.648;8.908;2023-05-16T07:38:20;12.00;99.90
11089;DHT22;5598;48.648;8.908;2023-05-16T07:40:48;12.00;99.90
11089;DHT22;5598;48.648;8.908;2023-05-16T07:43:15;12.00;99.90
11089;DHT22;5598;48.648;8.908;2023-05-16T07:45:41;12.00;99.90
11089;DHT22;5598;48.648;8.908;2023-05-16T07:48:08;12.10;99.90
11089;DHT22;5598;48.648;8.908;2023-05-16T07:50:35;12.00;99.90
11089;DHT22;5598;48.648;8.908;2023-05-16T07:53:02;12.00;99.90
11089;DHT22;5598;48.648;8.908;2023-05-16T07:55:28;12.00;99.90
11089;DHT22;5598;48.648;8.908;2023-05-16T07:57:56;12.00;99.90
11089;DHT22;5598;48.648;8.908;2023-05-16T08:00:23;12.00;99.90
11089;DHT22;5598;48.648;8.908;2023-05-16T08:02:50;12.10;99.90
11089;DHT22;5598;48.648;8.908;2023-05-16T08:05:17;12.10;99.90
11089;DHT22;5598;48.648;8.908;2023-05-16T08:07:44;12.10;99.90
11089;DHT22;5598;48.648;8.908;2023-05-16T08:10:11;12.20;99.90
11089;DHT22;5598;48.648;8.908;2023-05-16T08:12:37;12.30;99.90
11089;DHT22;5598;48.648;8.908;2023-05-16T08:15:07;12.40;99.90
11089;DHT22;5598;48.648;8.908;2023-05-16T08:17:34;12.50;99.90
11089;DHT22;5598;48.648;8.908;2023-05-16T08:20:00;12.60;99.90
11089;DHT22;5598;48.648;8.908;2023-05-16T08:22:28;12.70;99.90
11089;DHT22;5598;48.648;8.908;2023-05-16T08:24:55;12.80;99.90
11089;DHT22;5598;48.648;8.908;2023-05-16T08:27:22;12.80;99.90
11089;DHT22;5598;48.648;8.908;2023-05-16T08:29:49;12.80;99.90
11089;DHT22;5598;48.648;8.908;2023-05-16T08:32:18;12.90;99.90
11089;DHT22;5598;48.648;8.908;2023-05-16T08:34:44;12.90;99.90
11089;DHT22;5598;48.648;8.908;2023-05-16T08:37:11;13.00;99.90
11089;DHT22;5598;48.648;8.908;2023-05-16T08:39:38;12.90;99.90
11089;DHT22;5598;48.648;8.908;2023-05-16T08:42:05;12.90;99.90
11089;DHT22;5598;48.648;8.908;2023-05-16T08:44:33;12.80;99.90
11089;DHT22;5598;48.648;8.908;2023-05-16T08:47:04;12.80;99.90
11089;DHT22;5598;48.648;8.908;2023-05-16T08:49:34;12.90;99.90
11089;DHT22;5598;48.648;8.908;2023-05-16T08:52:02;12.90;99.90
11089;DHT22;5598;48.648;8.908;2023-05-16T08:54:32;12.90;99.90
11089;DHT22;5598;48.648;8.908;2023-05-16T08:57:00;12.90;99.90
11089;DHT22;5598;48.648;8.908;2023-05-16T08:59:27;12.80;99.90
11089;DHT22;5598;48.648;8.908;2023-05-16T09:01:55;12.80;99.90
11089;DHT22;5598;48.648;8.908;2023-05-16T09:04:22;12.90;99.90
11089;DHT22;5598;48.648;8.908;2023-05-16T09:06:52;12.90;99.90
11089;DHT22;5598;48.648;8.908;2023-05-16T09:09:18;12.80;99.90
11089;DHT22;5598;48.648;8.908;2023-05-16T09:11:46;12.70;99.90
11089;DHT22;5598;48.648;8.908;2023-05-16T09:14:13;12.70;99.90
11089;DHT22;5598;48.648;8.908;2023-05-16T09:16:39;12.70;99.90
11089;DHT22;5598;48.648;8.908;2023-05-16T09:19:11;12.70;99.90
11089;DHT22;5598;48.648;8.908;2023-05-16T09:21:39;12.70;99.90
11089;DHT22;5598;48.648;8.908;2023-05-16T09:24:08;12.80;99.90
11089;DHT22;5598;48.648;8.908;2023-05-16T09:26:37;12.80;99.90
11089;DHT22;5598;48.648;8.908;2023-05-16T09:29:09;12.90;99.90
11089;DHT22;5598;48.648;8.908;2023-05-16T09:31:36;13.00;99.90
11089;DHT22;5598;48.648;8.908;2023-05-16T09:34:06;13.10;99.90
11089;DHT22;5598;48.648;8.908;2023-05-16T09:36:33;13.20;99.90
11089;DHT22;5598;48.648;8.908;2023-05-16T09:39:01;13.40;99.90
11089;DHT22;5598;48.648;8.908;2023-05-16T09:41:32;13.60;99.90
11089;DHT22;5598;48.648;8.908;2023-05-16T09:44:03;13.90;99.90
11089;DHT22;5598;48.648;8.908;2023-05-16T09:46:30;14.00;99.90
11089;DHT22;5598;48.648;8.908;2023-05-16T09:48:56;14.20;99.90
11089;DHT22;5598;48.648;8.908;2023-05-16T09:51:23;14.30;99.90
11089;DHT22;5598;48.648;8.908;2023-05-16T09:53:50;14.50;99.90
11089;DHT22;5598;48.648;8.908;2023-05-16T09:56:17;14.60;99.90
11089;DHT22;5598;48.648;8.908;2023-05-16T09:58:45;14.80;99.90
11089;DHT22;5598;48.648;8.908;2023-05-16T10:01:12;15.10;99.90
11089;DHT22;5598;48.648;8.908;2023-05-16T10:03:40;15.20;99.90
11089;DHT22;5598;48.648;8.908;2023-05-16T10:06:08;15.20;99.90
11089;DHT22;5598;48.648;8.908;2023-05-16T10:08:35;15.50;99.90
11089;DHT22;5598;48.648;8.908;2023-05-16T10:11:03;15.80;99.90
11089;DHT22;5598;48.648;8.908;2023-05-16T10:13:32;16.00;99.90
11089;DHT22;5598;48.648;8.908;2023-05-16T10:16:06;15.80;99.90
11089;DHT22;5598;48.648;8.908;2023-05-16T10:18:34;15.50;99.90
11089;DHT22;5598;48.648;8.908;2023-05-16T10:21:05;15.10;99.90
11089;DHT22;5598;48.648;8.908;2023-05-16T10:23:33;14.90;99.90
11089;DHT22;5598;48.648;8.908;2023-05-16T10:26:02;14.80;99.90
11089;DHT22;5598;48.648;8.908;2023-05-16T10:28:30;14.80;99.90
11089;DHT22;5598;48.648;8.908;2023-05-16T10:30:59;14.80;99.90
11089;DHT22;5598;48.648;8.908;2023-05-16T10:33:27;14.80;99.90
11089;DHT22;5598;48.648;8.908;2023-05-16T10:35:57;14.80;99.90
11089;DHT22;5598;48.648;8.908;2023-05-16T10:38:25;14.70;99.90
11089;DHT22;5598;48.648;8.908;2023-05-16T10:40:54;14.80;99.90
11089;DHT22;5598;48.648;8.908;2023-05-16T10:43:25;15.00;99.90
11089;DHT22;5598;48.648;8.908;2023-05-16T10:45:55;15.00;99.90
11089;DHT22;5598;48.648;8.908;2023-05-16T10:48:29;15.10;99.90
11089;DHT22;5598;48.648;8.908;2023-05-16T10:50:56;15.30;99.90
11089;DHT22;5598;48.648;8.908;2023-05-16T10:53:29;15.30;99.90
11089;DHT22;5598;48.648;8.908;2023-05-16T10:56:10;15.40;99.90
11089;DHT22;5598;48.648;8.908;2023-05-16T10:58:41;15.40;99.90
11089;DHT22;5598;48.648;8.908;2023-05-16T11:01:16;15.40;99.90
11089;DHT22;5598;48.648;8.908;2023-05-16T11:04:09;15.40;99.90
11089;DHT22;5598;48.648;8.908;2023-05-16T11:06:49;15.50;99.90
11089;DHT22;5598;48.648;8.908;2023-05-16T11:09:19;15.40;99.90
11089;DHT22;5598;48.648;8.908;2023-05-16T11:11:54;15.40;99.90
11089;DHT22;5598;48.648;8.908;2023-05-16T11:14:22;15.30;99.90
11089;DHT22;5598;48.648;8.908;2023-05-16T11:16:50;15.20;99.90
11089;DHT22;5598;48.648;8.908;2023-05-16T11:19:38;15.10;99.90
11089;DHT22;5598;48.648;8.908;2023-05-16T11:22:16;14.90;99.90
11089;DHT22;5598;48.648;8.908;2023-05-16T11:24:55;14.90;99.90
11089;DHT22;5598;48.648;8.908;2023-05-16T11:27:24;14.80;99.90
11089;DHT22;5598;48.648;8.908;2023-05-16T11:29:51;14.70;99.90
11089;DHT22;5598;48.648;8.908;2023-05-16T11:32:19;14.60;99.90
11089;DHT22;5598;48.648;8.908;2023-05-16T11:34:50;14.50;99.90
11089;DHT22;5598;48.648;8.908;2023-05-16T11:37:20;14.30;99.90
11089;DHT22;5598;48.648;8.908;2023-05-16T11:39:47;14.20;99.90
11089;DHT22;5598;48.648;8.908;2023-05-16T11:42:14;14.10;99.90
11089;DHT22;5598;48.648;8.908;2023-05-16T11:44:42;14.10;99.90
11089;DHT22;5598;48.648;8.908;2023-05-16T11:47:09;14.00;99.90
11089;DHT22;5598;48.648;8.908;2023-05-16T11:49:36;13.90;99.90
11089;DHT22;5598;48.648;8.908;2023-05-16T11:52:06;14.00;99.90
11089;DHT22;5598;48.648;8.908;2023-05-16T11:54:34;13.90;99.90
11089;DHT22;5598;48.648;8.908;2023-05-16T11:57:01;13.90;99.90
11089;DHT22;5598;48.648;8.908;2023-05-16T11:59:28;13.90;99.90
11089;DHT22;5598;48.648;8.908;2023-05-16T12:01:55;14.00;99.90
11089;DHT22;5598;48.648;8.908;2023-05-16T12:04:22;14.00;99.90
11089;DHT22;5598;48.648;8.908;2023-05-16T12:07:00;14.00;99.90
11089;DHT22;5598;48.648;8.908;2023-05-16T12:09:28;14.10;99.90
11089;DHT22;5598;48.648;8.908;2023-05-16T12:11:55;14.20;99.90
11089;DHT22;5598;48.648;8.908;2023-05-16T12:14:22;14.10;99.90
11089;DHT22;5598;48.648;8.908;2023-05-16T12:16:51;14.10;99.90
11089;DHT22;5598;48.648;8.908;2023-05-16T12:19:18;14.00;99.90
11089;DHT22;5598;48.648;8.908;2023-05-16T12:21:45;14.00;99.90
11089;DHT22;5598;48.648;8.908;2023-05-16T12:24:12;13.80;99.90
11089;DHT22;5598;48.648;8.908;2023-05-16T12:26:40;13.70;99.90
11089;DHT22;5598;48.648;8.908;2023-05-16T12:29:09;13.60;99.90
11089;DHT22;5598;48.648;8.908;2023-05-16T12:31:37;13.60;99.90
11089;DHT22;5598;48.648;8.908;2023-05-16T12:34:14;13.60;99.90
11089;DHT22;5598;48.648;8.908;2023-05-16T12:36:41;13.50;99.90
11089;DHT22;5598;48.648;8.908;2023-05-16T12:39:11;13.50;99.90
11089;DHT22;5598;48.648;8.908;2023-05-16T12:41:41;13.50;99.90
11089;DHT22;5598;48.648;8.908;2023-05-16T12:44:12;13.40;99.90
11089;DHT22;5598;48.648;8.908;2023-05-16T12:46:45;13.30;99.90
11089;DHT22;5598;48.648;8.908;2023-05-16T12:49:12;13.30;99.90
11089;DHT22;5598;48.648;8.908;2023-05-16T12:51:46;13.20;99.90
11089;DHT22;5598;48.648;8.908;2023-05-16T12:54:13;13.20;99.90
11089;DHT22;5598;48.648;8.908;2023-05-16T12:56:41;13.20;99.90
11089;DHT22;5598;48.648;8.908;2023-05-16T12:59:09;13.10;99.90
11089;DHT22;5598;48.648;8.908;2023-05-16T13:01:37;13.00;99.90
11089;DHT22;5598;48.648;8.908;2023-05-16T13:04:05;12.90;99.90
11089;DHT22;5598;48.648;8.908;2023-05-16T13:06:32;12.70;99.90
11089;DHT22;5598;48.648;8.908;2023-05-16T13:08:59;12.60;99.90
11089;DHT22;5598;48.648;8.908;2023-05-16T13:11:26;12.50;99.90
11089;DHT22;5598;48.648;8.908;2023-05-16T13:13:54;12.50;99.90
11089;DHT22;5598;48.648;8.908;2023-05-16T13:16:21;12.50;99.90
11089;DHT22;5598;48.648;8.908;2023-05-16T13:18:48;12.50;99.90
11089;DHT22;5598;48.648;8.908;2023-05-16T13:21:15;12.40;99.90
11089;DHT22;5598;48.648;8.908;2023-05-16T13:23:42;12.50;99.90
11089;DHT22;5598;48.648;8.908;2023-05-16T13:26:09;12.40;99.90
11089;DHT22;5598;48.648;8.908;2023-05-16T13:28:35;12.40;99.90
11089;DHT22;5598;48.648;8.908;2023-05-16T13:31:04;12.40;99.90
11089;DHT22;5598;48.648;8.908;2023-05-16T13:33:31;12.50;99.90
11089;DHT22;5598;48.648;8.908;2023-05-16T13:35:58;12.60;99.90
11089;DHT22;5598;48.648;8.908;2023-05-16T13:38:25;12.60;99.90
11089;DHT22;5598;48.648;8.908;2023-05-16T13:40:51;12.70;99.90
11089;DHT22;5598;48.648;8.908;2023-05-16T13:43:19;12.80;99.90
11089;DHT22;5598;48.648;8.908;2023-05-16T13:45:45;12.80;99.90
11089;DHT22;5598;48.648;8.908;2023-05-16T13:48:14;12.80;99.90
11089;DHT22;5598;48.648;8.908;2023-05-16T13:50:40;12.80;99.90
11089;DHT22;5598;48.648;8.908;2023-05-16T13:53:07;12.80;99.90
11089;DHT22;5598;48.648;8.908;2023-05-16T13:55:34;12.80;99.90
11089;DHT22;5598;48.648;8.908;2023-05-16T13:58:01;12.80;99.90
11089;DHT22;5598;48.648;8.908;2023-05-16T14:00:28;12.80;99.90
11089;DHT22;5598;48.648;8.908;2023-05-16T14:02:55;12.80;99.90
11089;DHT22;5598;48.648;8.908;2023-05-16T14:05:23;12.80;99.90
11089;DHT22;5598;48.648;8.908;2023-05-16T14:07:50;12.80;99.90
11089;DHT22;5598;48.648;8.908;2023-05-16T14:10:17;12.80;99.90
11089;DHT22;5598;48.648;8.908;2023-05-16T14:12:44;12.80;99.90
11089;DHT22;5598;48.648;8.908;2023-05-16T14:15:14;12.80;99.90
11089;DHT22;5598;48.648;8.908;2023-05-16T14:17:41;12.80;99.90
11089;DHT22;5598;48.648;8.908;2023-05-16T14:20:08;12.80;99.90
11089;DHT22;5598;48.648;8.908;2023-05-16T14:22:37;12.80;99.90
11089;DHT22;5598;48.648;8.908;2023-05-16T14:25:05;12.90;99.90
11089;DHT22;5598;48.648;8.908;2023-05-16T14:27:32;13.00;99.90
11089;DHT22;5598;48.648;8.908;2023-05-16T14:29:59;13.10;99.90
11089;DHT22;5598;48.648;8.908;2023-05-16T14:32:26;13.20;99.90
11089;DHT22;5598;48.648;8.908;2023-05-16T14:34:53;13.30;99.90
11089;DHT22;5598;48.648;8.908;2023-05-16T14:37:20;13.40;99.80
11089;DHT22;5598;48.648;8.908;2023-05-16T14:39:48;13.50;99.50
11089;DHT22;5598;48.648;8.908;2023-05-16T14:42:17;13.60;99.80
11089;DHT22;5598;48.648;8.908;2023-05-16T14:44:44;13.70;99.40
11089;DHT22;5598;48.648;8.908;2023-05-16T14:47:11;13.70;99.60
11089;DHT22;5598;48.648;8.908;2023-05-16T14:49:42;13.80;99.50
11089;DHT22;5598;48.648;8.908;2023-05-16T14:52:09;14.00;99.00
11089;DHT22;5598;48.648;8.908;2023-05-16T14:54:36;13.90;98.40
11089;DHT22;5598;48.648;8.908;2023-05-16T14:57:04;13.90;98.20
11089;DHT22;5598;48.648;8.908;2023-05-16T14:59:31;14.00;98.50
11089;DHT22;5598;48.648;8.908;2023-05-16T15:01:58;14.10;98.30
11089;DHT22;5598;48.648;8.908;2023-05-16T15:04:26;14.10;98.20
11089;DHT22;5598;48.648;8.908;2023-05-16T15:06:53;14.20;98.00
11089;DHT22;5598;48.648;8.908;2023-05-16T15:09:20;14.20;98.20
11089;DHT22;5598;48.648;8.908;2023-05-16T15:11:47;14.10;98.00
11089;DHT22;5598;48.648;8.908;2023-05-16T15:14:15;14.10;98.00
11089;DHT22;5598;48.648;8.908;2023-05-16T15:16:42;14.00;97.60
11089;DHT22;5598;48.648;8.908;2023-05-16T15:19:09;14.00;97.70
11089;DHT22;5598;48.648;8.908;2023-05-16T15:21:36;14.00;98.20
11089;DHT22;5598;48.648;8.908;2023-05-16T15:24:03;13.90;98.20
11089;DHT22;5598;48.648;8.908;2023-05-16T15:26:30;14.00;97.70
11089;DHT22;5598;48.648;8.908;2023-05-16T15:28:57;14.00;97.70
11089;DHT22;5598;48.648;8.908;2023-05-16T15:31:25;14.00;97.90
11089;DHT22;5598;48.648;8.908;2023-05-16T15:33:52;14.10;97.40
11089;DHT22;5598;48.648;8.908;2023-05-16T15:36:19;14.10;97.60
11089;DHT22;5598;48.648;8.908;2023-05-16T15:38:46;14.10;97.30
11089;DHT22;5598;48.648;8.908;2023-05-16T15:41:12;14.10;97.70
11089;DHT22;5598;48.648;8.908;2023-05-16T15:43:40;14.20;97.20
11089;DHT22;5598;48.648;8.908;2023-05-16T15:46:07;14.20;97.30
11089;DHT22;5598;48.648;8.908;2023-05-16T15:48:36;14.20;96.90